createdAt,value
2023-12-17T00:01:33.913Z,101085.55
2023-12-17T00:06:38.917Z,101082.77
2023-12-17T00:11:42.490Z,101072.80
2023-12-17T00:16:45.417Z,101062.15
2023-12-17T00:21:49.681Z,101033.98
2023-12-17T00:26:56.085Z,101034.90
2023-12-17T00:32:01.088Z,101036.29
2023-12-17T00:37:05.928Z,101037.45
2023-12-17T00:42:08.836Z,101023.40
2023-12-17T00:47:11.752Z,101018.81
2023-12-17T00:52:15.906Z,101031.77
2023-12-17T00:57:22.234Z,101014.48
2023-12-17T01:02:27.041Z,100983.31
2023-12-17T01:07:30.001Z,100997.30
2023-12-17T01:12:32.888Z,100997.11
2023-12-17T01:17:35.878Z,100987.35
2023-12-17T01:22:38.839Z,100987.51
2023-12-17T01:27:41.997Z,100983.25
2023-12-17T01:32:45.066Z,100977.55
2023-12-17T01:37:48.460Z,100967.14
2023-12-17T01:42:54.092Z,100962.73
2023-12-17T01:47:57.096Z,100976.46
2023-12-17T01:53:00.078Z,100974.27
2023-12-17T01:58:04.269Z,100977.31
2023-12-17T02:03:07.367Z,100976.88
2023-12-17T02:08:10.377Z,100981.26
2023-12-17T02:13:16.185Z,100985.30
2023-12-17T02:18:19.252Z,100994.61
2023-12-17T02:23:22.470Z,100996.84
2023-12-17T02:28:25.331Z,101002.52
2023-12-17T02:33:28.511Z,101006.74
2023-12-17T02:38:31.434Z,101020.52
2023-12-17T02:43:34.355Z,101012.98
2023-12-17T02:48:37.451Z,101027.03
2023-12-17T02:53:40.487Z,101027.42
2023-12-17T02:58:43.371Z,101020.77
2023-12-17T03:03:46.462Z,101031.80
2023-12-17T03:08:49.522Z,101040.26
2023-12-17T03:13:52.517Z,101039.45
2023-12-17T03:18:55.712Z,101037.00
2023-12-17T03:23:58.891Z,101038.07
2023-12-17T03:29:01.988Z,101042.12
2023-12-17T03:34:06.075Z,101045.05
2023-12-17T03:39:09.224Z,101042.89
2023-12-17T03:44:12.373Z,101043.59
2023-12-17T03:49:15.374Z,101033.65
2023-12-17T03:54:18.321Z,101029.86
2023-12-17T03:59:21.205Z,101016.89
2023-12-17T04:04:24.087Z,101004.95
2023-12-17T04:09:27.011Z,101005.98
2023-12-17T04:14:29.975Z,101013.08
2023-12-17T04:19:32.984Z,101017.80
2023-12-17T04:24:35.983Z,101016.48
2023-12-17T04:29:38.836Z,101013.96
2023-12-17T04:34:41.994Z,101009.88
2023-12-17T04:39:44.995Z,101017.21
2023-12-17T04:44:47.981Z,101008.42
2023-12-17T04:49:51.018Z,101009.41
2023-12-17T04:54:53.930Z,101017.63
2023-12-17T04:59:58.194Z,101021.96
2023-12-17T05:05:01.358Z,101035.77
2023-12-17T05:10:04.673Z,101038.77
2023-12-17T05:15:08.231Z,101041.67
2023-12-17T05:20:11.404Z,101057.67
2023-12-17T05:25:16.385Z,101057.42
2023-12-17T05:30:20.598Z,101058.45
2023-12-17T05:35:23.646Z,101057.58
2023-12-17T05:40:26.599Z,101069.05
2023-12-17T05:45:29.557Z,101071.75
2023-12-17T05:50:32.480Z,101077.40
2023-12-17T05:55:35.419Z,101081.34
2023-12-17T06:00:39.486Z,101084.80
2023-12-17T06:05:45.605Z,101084.33
2023-12-17T06:10:50.454Z,101086.39
2023-12-17T06:15:53.694Z,101086.08
2023-12-17T06:20:56.589Z,101091.05
2023-12-17T06:25:59.601Z,101107.46
2023-12-17T06:31:02.655Z,101122.90
2023-12-17T06:36:06.626Z,101118.43
2023-12-17T06:41:09.605Z,101118.14
2023-12-17T06:46:18.691Z,101118.52
2023-12-17T06:51:21.659Z,101124.37
2023-12-17T06:56:24.680Z,101129.41
2023-12-17T07:01:29.752Z,101136.75
2023-12-17T07:06:34.470Z,101133.48
2023-12-17T07:11:37.403Z,101147.30
2023-12-17T07:16:43.415Z,101156.69
2023-12-17T07:21:46.420Z,101167.82
2023-12-17T07:26:49.861Z,101184.23
2023-12-17T07:31:54.416Z,101188.02
2023-12-17T07:36:57.363Z,101189.48
2023-12-17T07:42:03.599Z,101186.45
2023-12-17T07:47:12.162Z,101189.27
2023-12-17T07:52:16.520Z,101191.02
2023-12-17T07:57:20.482Z,101193.20
2023-12-17T08:02:25.337Z,101177.72
2023-12-17T08:07:31.425Z,101186.34
2023-12-17T08:12:34.628Z,101189.64
2023-12-17T08:17:37.847Z,101190.93
2023-12-17T08:22:40.935Z,101190.49
2023-12-17T08:27:44.326Z,101196.08
2023-12-17T08:32:47.870Z,101196.33
2023-12-17T08:37:50.913Z,101193.37
2023-12-17T08:42:54.005Z,101192.14
2023-12-17T08:47:57.748Z,101196.07
2023-12-17T08:53:02.149Z,101202.92
2023-12-17T08:58:05.246Z,101213.55
2023-12-17T09:03:11.356Z,101223.05
2023-12-17T09:08:14.570Z,101221.63
2023-12-17T09:13:17.541Z,101223.36
2023-12-17T09:18:21.128Z,101227.36
2023-12-17T09:23:24.181Z,101232.64
2023-12-17T09:28:27.198Z,101228.61
2023-12-17T09:33:30.241Z,101219.55
2023-12-17T09:38:33.321Z,101221.83
2023-12-17T09:43:36.232Z,101217.19
2023-12-17T09:48:39.943Z,101208.09
2023-12-17T09:53:44.014Z,101206.72
2023-12-17T09:58:47.739Z,101209.61
2023-12-17T10:03:51.235Z,101206.52
2023-12-17T10:08:57.893Z,101206.39
2023-12-17T10:14:02.020Z,101206.09
2023-12-17T10:19:06.008Z,101198.84
2023-12-17T10:24:12.063Z,101204.29
2023-12-17T10:29:19.529Z,101204.89
2023-12-17T10:34:24.724Z,101209.51
2023-12-17T10:39:29.254Z,101208.52
2023-12-17T10:44:34.188Z,101207.41
2023-12-17T10:49:40.232Z,101215.26
2023-12-17T10:54:43.267Z,101222.90
2023-12-17T10:59:46.185Z,101220.77
2023-12-17T11:04:50.491Z,101213.14
2023-12-17T11:09:53.386Z,101207.05
2023-12-17T11:14:56.477Z,101195.66
2023-12-17T11:20:01.399Z,101195.40
2023-12-17T11:25:12.482Z,101203.47
2023-12-17T11:30:34.124Z,101200.94
2023-12-17T11:35:39.187Z,101196.18
2023-12-17T11:40:42.155Z,101183.29
2023-12-17T11:45:46.904Z,101177.73
2023-12-17T11:50:50.855Z,101173.39
2023-12-17T11:55:57.814Z,101170.91
2023-12-17T12:01:04.322Z,101164.70
2023-12-17T12:06:13.453Z,101159.23
2023-12-17T12:11:19.319Z,101153.84
2023-12-17T12:16:23.748Z,101149.16
2023-12-17T12:21:27.921Z,101131.94
2023-12-17T12:26:33.704Z,101124.89
2023-12-17T12:31:37.342Z,101118.17
2023-12-17T12:36:47.965Z,101116.91
2023-12-17T12:41:51.458Z,101120.44
2023-12-17T12:46:54.557Z,101108.34
2023-12-17T12:51:58.042Z,101120.09
2023-12-17T12:57:01.283Z,101120.56
2023-12-17T13:02:05.207Z,101128.58
2023-12-17T13:07:08.778Z,101133.79
2023-12-17T13:12:12.566Z,101132.42
2023-12-17T13:17:15.630Z,101130.48
2023-12-17T13:22:18.657Z,101125.21
2023-12-17T13:27:21.712Z,101121.26
2023-12-17T13:32:24.722Z,101121.73
2023-12-17T13:37:27.725Z,101119.57
2023-12-17T13:42:30.845Z,101113.84
2023-12-17T13:47:35.763Z,101103.05
2023-12-17T13:52:42.141Z,101082.02
2023-12-17T13:57:47.365Z,101074.48
2023-12-17T14:02:51.973Z,101076.30
2023-12-17T14:07:58.945Z,101078.99
2023-12-17T14:13:02.044Z,101105.42
2023-12-17T14:18:07.039Z,101097.80
2023-12-17T14:23:13.998Z,101093.52
2023-12-17T14:28:18.898Z,101079.98
2023-12-17T14:33:22.519Z,101089.48
2023-12-17T14:38:25.792Z,101101.83
2023-12-17T14:43:28.809Z,101115.20
2023-12-17T14:48:32.391Z,101110.88
2023-12-17T14:53:43.657Z,101108.09
2023-12-17T14:58:53.074Z,101112.41
2023-12-17T15:03:58.240Z,101126.44
2023-12-17T15:09:02.839Z,101113.82
2023-12-17T15:14:06.073Z,101107.58
2023-12-17T15:19:10.206Z,101091.78
2023-12-17T15:24:13.256Z,101102.84
2023-12-17T15:29:16.237Z,101108.54
2023-12-17T15:34:19.442Z,101108.66
2023-12-17T15:39:23.665Z,101085.35
2023-12-17T15:44:29.888Z,101080.64
2023-12-17T15:49:35.616Z,101086.58
2023-12-17T15:54:38.903Z,101087.70
2023-12-17T15:59:43.766Z,101083.92
2023-12-17T16:04:46.750Z,101060.52
2023-12-17T16:09:49.745Z,101050.01
2023-12-17T16:14:55.043Z,101075.09
2023-12-17T16:19:58.140Z,101097.59
2023-12-17T16:25:01.389Z,101103.19
2023-12-17T16:30:04.744Z,101067.52
2023-12-17T16:35:10.022Z,101072.16
2023-12-17T16:40:13.323Z,101081.91
2023-12-17T16:45:16.392Z,101088.41
2023-12-17T16:50:20.824Z,101093.30
2023-12-17T16:55:23.852Z,101084.61
2023-12-17T17:00:31.188Z,101061.50
2023-12-17T17:05:34.865Z,101056.41
2023-12-17T17:10:37.931Z,101057.66
2023-12-17T17:15:41.061Z,101071.41
2023-12-17T17:20:44.033Z,101026.71
2023-12-17T17:25:48.139Z,101027.85
2023-12-17T17:30:51.495Z,101045.71
2023-12-17T17:35:54.686Z,101045.75
2023-12-17T17:40:59.699Z,101047.35
2023-12-17T17:46:04.744Z,101010.58
2023-12-17T17:51:09.732Z,101029.64
2023-12-17T17:56:13.133Z,101014.70
2023-12-17T18:01:19.378Z,100999.56
2023-12-17T18:06:22.718Z,100966.23
2023-12-17T18:11:25.962Z,100963.10
2023-12-17T18:16:29.159Z,100990.25
2023-12-17T18:21:38.973Z,100967.16
2023-12-17T18:26:42.185Z,100971.98
2023-12-17T18:31:45.136Z,100962.08
2023-12-17T18:36:49.557Z,100992.16
2023-12-17T18:41:55.687Z,100951.21
2023-12-17T18:47:00.564Z,100949.80
2023-12-17T18:52:04.773Z,100960.23
2023-12-17T18:57:07.885Z,100951.55
2023-12-17T19:02:10.902Z,100942.05
2023-12-17T19:07:13.996Z,100948.11
2023-12-17T19:12:20.711Z,100940.95
2023-12-17T19:17:25.784Z,100924.18
2023-12-17T19:22:34.173Z,100923.99
2023-12-17T19:27:39.564Z,100917.83
2023-12-17T19:32:44.844Z,100916.30
2023-12-17T19:37:48.114Z,100930.86
2023-12-17T19:42:51.237Z,100934.35
2023-12-17T19:47:54.325Z,100925.59
2023-12-17T19:53:00.461Z,100934.29
2023-12-17T19:58:05.645Z,100939.17
2023-12-17T20:03:10.718Z,100916.54
2023-12-17T20:08:13.794Z,100917.95
2023-12-17T20:13:16.841Z,100915.20
2023-12-17T20:18:21.224Z,100891.71
2023-12-17T20:23:24.295Z,100890.34
2023-12-17T20:28:27.305Z,100870.55
2023-12-17T20:33:30.603Z,100868.84
2023-12-17T20:38:34.672Z,100859.80
2023-12-17T20:43:37.795Z,100844.61
2023-12-17T20:48:40.998Z,100835.98
2023-12-17T20:53:44.204Z,100831.33
2023-12-17T20:58:49.391Z,100794.31
2023-12-17T21:03:54.374Z,100843.46
2023-12-17T21:08:57.635Z,100828.95
2023-12-17T21:14:02.409Z,100831.30
2023-12-17T21:19:09.693Z,100831.92
2023-12-17T21:24:12.885Z,100823.48
2023-12-17T21:29:15.988Z,100832.59
2023-12-17T21:34:19.997Z,100827.20
2023-12-17T21:39:23.082Z,100830.52
2023-12-17T21:44:26.118Z,100826.35
2023-12-17T21:49:30.642Z,100816.58
2023-12-17T21:54:36.691Z,100801.64
2023-12-17T21:59:40.114Z,100782.43
2023-12-17T22:04:44.404Z,100769.00
2023-12-17T22:09:47.578Z,100764.73
2023-12-17T22:14:50.606Z,100763.73
2023-12-17T22:19:55.472Z,100752.88
2023-12-17T22:24:58.439Z,100740.09
2023-12-17T22:30:01.801Z,100722.39
2023-12-17T22:35:05.631Z,100725.52
2023-12-17T22:40:09.283Z,100727.55
2023-12-17T22:45:12.478Z,100728.16
2023-12-17T22:50:15.634Z,100735.86
2023-12-17T22:55:18.609Z,100740.25
2023-12-17T23:00:22.536Z,100740.56
2023-12-17T23:05:25.620Z,100736.80
2023-12-17T23:10:28.577Z,100738.45
2023-12-17T23:15:31.604Z,100737.97
2023-12-17T23:20:34.551Z,100735.45
2023-12-17T23:25:37.582Z,100740.67
2023-12-17T23:30:40.673Z,100738.15
2023-12-17T23:35:45.400Z,100739.52
2023-12-17T23:40:50.307Z,100741.18
2023-12-17T23:45:54.017Z,100739.15
2023-12-17T23:51:00.253Z,100734.26
2023-12-17T23:56:03.403Z,100734.51
